Time;durP1;ratioP1;P1;durP2;ratioP2;P2;SDS_P1;SDS_P2;PMS_P1;PMS_P2;Temp;Humidity;BMP_temperature;BMP_pressure;BME280_temperature;BME280_humidity;BME280_pressure;Samples;Min_cycle;Max_cycle;Signal;HPM_P1;HPM_P2
2023/06/15 00:01:06;;;;;;;2.30;2.10;;;21.70;60.30;;;;;;4995324;28;20122;-66
2023/06/15 00:03:31;;;;;;;1.98;1.77;;;21.70;60.40;;;;;;4994426;28;20034;-67
2023/06/15 00:05:57;;;;;;;2.17;1.98;;;21.70;60.40;;;;;;4992679;28;20092;-66
2023/06/15 00:08:23;;;;;;;2.05;1.85;;;21.70;60.30;;;;;;4994684;28;20489;-67
2023/06/15 00:10:48;;;;;;;2.22;1.83;;;21.70;60.30;;;;;;4994385;28;20025;-66
2023/06/15 00:13:15;;;;;;;2.10;1.90;;;21.70;60.40;;;;;;4989475;28;20058;-67
2023/06/15 00:15:41;;;;;;;2.55;2.17;;;21.70;60.40;;;;;;5002957;28;20462;-65
2023/06/15 00:18:06;;;;;;;2.60;2.40;;;21.60;60.30;;;;;;5000753;28;20034;-67
2023/06/15 00:20:32;;;;;;;4.43;2.15;;;21.70;60.40;;;;;;4998302;28;20101;-65
2023/06/15 00:22:59;;;;;;;2.13;1.92;;;21.60;60.30;;;;;;4995099;28;20466;-63
2023/06/15 00:25:24;;;;;;;1.98;1.80;;;21.60;60.30;;;;;;5001358;28;20037;-67
2023/06/15 00:27:50;;;;;;;3.45;2.33;;;21.70;60.40;;;;;;5000127;28;20405;-67
2023/06/15 00:30:16;;;;;;;3.88;2.33;;;21.60;60.30;;;;;;4997093;28;20022;-67
2023/06/15 00:32:42;;;;;;;1.85;1.75;;;21.60;60.30;;;;;;4997188;28;20033;-67
2023/06/15 00:35:08;;;;;;;2.42;2.22;;;21.60;60.40;;;;;;4994970;28;20157;-68
2023/06/15 00:37:33;;;;;;;2.55;2.35;;;21.60;60.40;;;;;;4993917;28;21856;-66
2023/06/15 00:40:00;;;;;;;2.03;1.83;;;21.60;60.40;;;;;;4999658;28;20188;-67
2023/06/15 00:42:28;;;;;;;1.83;1.65;;;21.60;60.40;;;;;;4991651;28;20045;-67
2023/06/15 00:44:54;;;;;;;2.40;2.20;;;21.60;60.40;;;;;;4995892;28;20022;-66
2023/06/15 00:47:21;;;;;;;2.10;1.90;;;21.60;60.30;;;;;;4998060;28;20042;-67
2023/06/15 00:49:47;;;;;;;2.13;1.92;;;21.60;60.40;;;;;;4996681;28;20030;-67
2023/06/15 00:52:14;;;;;;;2.10;2.00;;;21.60;60.40;;;;;;4999333;28;20034;-67
2023/06/15 00:54:40;;;;;;;2.30;2.10;;;21.60;60.30;;;;;;4999490;28;20034;-67
2023/06/15 00:57:10;;;;;;;3.17;2.10;;;21.60;60.40;;;;;;4998111;28;20035;-66
2023/06/15 00:59:40;;;;;;;2.15;2.03;;;21.60;60.30;;;;;;4995605;28;20030;-67
2023/06/15 01:02:05;;;;;;;1.80;1.70;;;21.60;60.40;;;;;;4992221;28;20034;-66
2023/06/15 01:04:31;;;;;;;2.20;1.90;;;21.60;60.40;;;;;;4989052;28;20043;-67
2023/06/15 01:07:02;;;;;;;2.55;2.08;;;21.60;60.40;;;;;;4992086;28;20034;-66
2023/06/15 01:09:29;;;;;;;3.08;2.47;;;21.60;60.40;;;;;;4991661;28;20030;-64
2023/06/15 01:11:57;;;;;;;2.25;2.05;;;21.60;60.40;;;;;;4990803;28;20050;-67
2023/06/15 01:14:25;;;;;;;2.10;1.90;;;21.60;60.40;;;;;;5000072;28;20062;-66
2023/06/15 01:16:57;;;;;;;2.50;2.22;;;21.60;60.40;;;;;;5000341;28;20117;-67
2023/06/15 01:19:32;;;;;;;2.78;2.40;;;21.60;60.40;;;;;;4997152;28;20656;-65
2023/06/15 01:22:07;;;;;;;3.75;2.47;;;21.60;60.40;;;;;;4996251;28;20030;-67
2023/06/15 01:24:36;;;;;;;2.92;2.03;;;21.60;60.50;;;;;;4999795;28;20172;-67
2023/06/15 01:27:04;;;;;;;2.65;1.67;;;21.60;60.50;;;;;;4996777;28;20153;-66
2023/06/15 01:29:35;;;;;;;2.33;2.13;;;21.60;60.50;;;;;;4995321;28;20537;-67
2023/06/15 01:32:02;;;;;;;2.45;2.25;;;21.60;61.10;;;;;;4991524;28;20118;-67
2023/06/15 01:34:28;;;;;;;2.83;1.85;;;21.60;60.50;;;;;;4997315;28;20137;-65
2023/06/15 01:36:53;;;;;;;2.55;2.35;;;21.60;60.50;;;;;;4991999;28;20497;-66
2023/06/15 01:39:18;;;;;;;2.95;2.28;;;21.60;60.50;;;;;;4992046;28;20042;-67
2023/06/15 01:41:45;;;;;;;2.60;2.40;;;21.60;60.50;;;;;;4989332;28;20113;-66
2023/06/15 01:44:11;;;;;;;2.50;2.30;;;21.60;60.50;;;;;;4998715;28;20117;-66
2023/06/15 01:46:37;;;;;;;2.63;2.42;;;21.60;60.50;;;;;;4998871;28;20228;-67
2023/06/15 01:49:03;;;;;;;2.15;1.95;;;21.60;60.50;;;;;;4997205;28;20037;-67
2023/06/15 01:51:30;;;;;;;2.20;2.00;;;21.50;60.40;;;;;;4997629;28;20034;-66
2023/06/15 01:53:55;;;;;;;2.50;2.30;;;21.60;60.50;;;;;;4998248;28;20120;-66
2023/06/15 01:56:21;;;;;;;1.92;1.80;;;21.60;60.50;;;;;;4996673;28;20460;-67
2023/06/15 01:58:46;;;;;;;2.50;2.30;;;21.60;60.50;;;;;;4994159;28;22168;-67
2023/06/15 02:01:12;;;;;;;2.53;2.33;;;21.50;60.50;;;;;;4989697;28;20537;-68
2023/06/15 02:03:37;;;;;;;2.45;2.25;;;21.50;60.50;;;;;;4994087;28;20145;-68
2023/06/15 02:06:03;;;;;;;2.47;2.28;;;21.50;60.50;;;;;;4999136;28;20026;-68
2023/06/15 02:08:28;;;;;;;2.45;2.20;;;21.50;60.50;;;;;;4997454;28;20140;-67
2023/06/15 02:10:54;;;;;;;2.42;2.22;;;21.50;60.50;;;;;;4997845;28;20045;-67
2023/06/15 02:13:20;;;;;;;3.45;3.15;;;21.50;60.60;;;;;;5002250;28;20133;-67
2023/06/15 02:15:45;;;;;;;2.03;1.80;;;21.50;60.50;;;;;;5002141;28;20069;-66
2023/06/15 02:18:14;;;;;;;2.30;2.10;;;21.50;60.50;;;;;;5001605;28;20520;-67
2023/06/15 02:20:44;;;;;;;2.67;2.47;;;21.50;60.50;;;;;;5001711;28;20033;-67
2023/06/15 02:23:10;;;;;;;2.78;2.45;;;21.50;60.50;;;;;;5000410;28;20273;-68
2023/06/15 02:25:36;;;;;;;2.75;2.40;;;21.50;60.50;;;;;;4999749;28;20045;-67
2023/06/15 02:28:02;;;;;;;2.88;2.67;;;21.50;60.50;;;;;;4997635;28;20034;-66
2023/06/15 02:30:28;;;;;;;2.33;2.13;;;21.50;60.50;;;;;;4998782;28;20428;-65
2023/06/15 02:32:53;;;;;;;2.55;2.35;;;21.50;60.60;;;;;;4995370;28;20159;-66
2023/06/15 02:35:20;;;;;;;2.42;2.22;;;21.50;60.50;;;;;;4998731;28;20401;-67
2023/06/15 02:37:46;;;;;;;2.13;1.90;;;21.50;60.50;;;;;;4998108;28;20041;-68
2023/06/15 02:40:12;;;;;;;2.20;2.00;;;21.50;60.50;;;;;;4997461;28;20030;-67
2023/06/15 02:42:38;;;;;;;2.70;2.50;;;21.50;60.50;;;;;;5003513;28;20416;-68
2023/06/15 02:45:06;;;;;;;2.47;2.28;;;21.50;60.50;;;;;;5001825;28;20040;-67
2023/06/15 02:47:33;;;;;;;2.20;2.00;;;21.50;60.50;;;;;;5001076;28;20046;-67
2023/06/15 02:49:59;;;;;;;2.08;1.88;;;21.50;60.50;;;;;;5002641;28;20034;-68
2023/06/15 02:52:30;;;;;;;2.33;2.13;;;21.40;60.50;;;;;;5002401;28;20545;-67
2023/06/15 02:54:59;;;;;;;2.63;2.42;;;21.50;60.60;;;;;;4999843;28;20093;-67
2023/06/15 02:57:25;;;;;;;2.75;2.22;;;21.50;60.50;;;;;;4998702;28;20026;-67
2023/06/15 02:59:51;;;;;;;2.28;2.08;;;21.50;60.50;;;;;;4995774;28;20075;-67
2023/06/15 03:02:20;;;;;;;2.45;2.25;;;21.50;60.50;;;;;;4992403;28;20037;-68
2023/06/15 03:04:46;;;;;;;2.58;2.38;;;21.50;60.50;;;;;;4997221;28;20180;-68
2023/06/15 03:07:16;;;;;;;2.30;2.10;;;21.50;60.50;;;;;;4994048;28;20132;-66
2023/06/15 03:09:48;;;;;;;2.78;2.58;;;21.40;60.50;;;;;;4995627;28;20034;-67
2023/06/15 03:12:14;;;;;;;2.28;2.08;;;21.50;60.50;;;;;;4990102;28;20041;-68
2023/06/15 03:14:39;;;;;;;2.30;2.10;;;21.50;60.50;;;;;;5001094;28;20030;-67
2023/06/15 03:17:10;;;;;;;2.38;2.17;;;21.40;60.50;;;;;;5002167;28;20034;-67
2023/06/15 03:19:36;;;;;;;2.90;2.40;;;21.50;60.50;;;;;;5002074;28;20036;-68
2023/06/15 03:22:02;;;;;;;3.08;2.38;;;21.50;60.60;;;;;;5000968;28;20113;-68
2023/06/15 03:24:30;;;;;;;3.00;2.40;;;21.40;60.50;;;;;;4997954;28;20049;-67
2023/06/15 03:26:57;;;;;;;2.95;2.30;;;21.50;60.50;;;;;;4997905;28;20060;-67
2023/06/15 03:29:26;;;;;;;2.53;2.33;;;21.50;60.60;;;;;;4995130;28;20035;-67
2023/06/15 03:31:52;;;;;;;2.50;2.30;;;21.50;60.60;;;;;;5000086;28;20061;-68
2023/06/15 03:34:18;;;;;;;2.50;2.22;;;21.50;60.60;;;;;;4998231;28;20445;-67
2023/06/15 03:36:43;;;;;;;2.90;2.60;;;21.50;60.60;;;;;;4997410;28;20030;-68
2023/06/15 03:39:09;;;;;;;2.50;2.30;;;21.50;60.60;;;;;;4996392;28;20025;-67
2023/06/15 03:41:37;;;;;;;2.47;2.28;;;21.40;60.50;;;;;;5002632;28;20045;-67
2023/06/15 03:44:03;;;;;;;2.58;2.38;;;21.40;60.50;;;;;;5001022;28;20030;-67
2023/06/15 03:46:28;;;;;;;3.13;2.50;;;21.50;60.50;;;;;;5004087;28;20088;-66
2023/06/15 03:48:54;;;;;;;2.60;2.40;;;21.50;60.60;;;;;;5001607;28;20034;-67
2023/06/15 03:51:19;;;;;;;2.25;1.98;;;21.40;60.50;;;;;;5002655;28;20116;-67
2023/06/15 03:53:45;;;;;;;2.40;2.20;;;21.50;60.50;;;;;;4999922;28;20057;-68
2023/06/15 03:56:10;;;;;;;2.60;2.40;;;21.50;60.50;;;;;;4998934;28;20817;-67
2023/06/15 03:58:36;;;;;;;2.35;2.15;;;21.50;60.50;;;;;;4990780;28;20453;-67
2023/06/15 04:01:04;;;;;;;2.47;2.28;;;21.40;60.50;;;;;;4993064;28;20026;-68
2023/06/15 04:03:34;;;;;;;2.33;2.10;;;21.50;60.50;;;;;;4993806;28;20109;-68
2023/06/15 04:06:01;;;;;;;2.40;2.20;;;21.50;60.50;;;;;;4992231;28;20277;-67
2023/06/15 04:08:26;;;;;;;3.22;2.47;;;21.40;60.50;;;;;;4993564;28;20033;-67
2023/06/15 04:10:52;;;;;;;2.60;2.40;;;21.40;60.50;;;;;;5000203;28;20037;-67
2023/06/15 04:13:18;;;;;;;3.33;2.42;;;21.40;60.50;;;;;;5000855;28;20050;-67
2023/06/15 04:15:43;;;;;;;2.30;2.10;;;21.40;60.50;;;;;;5001229;28;20548;-67
2023/06/15 04:18:09;;;;;;;2.47;2.28;;;21.40;60.50;;;;;;4999415;28;20030;-68
2023/06/15 04:20:36;;;;;;;2.83;2.20;;;21.40;60.50;;;;;;4997418;28;20037;-67
2023/06/15 04:23:01;;;;;;;2.88;2.67;;;21.40;60.60;;;;;;4995271;28;20034;-67
2023/06/15 04:25:27;;;;;;;2.47;2.15;;;21.40;60.60;;;;;;4994965;28;20030;-67
2023/06/15 04:27:53;;;;;;;3.20;2.90;;;21.40;60.60;;;;;;4995082;28;20077;-66
2023/06/15 04:30:24;;;;;;;2.67;2.47;;;21.40;60.70;;;;;;4994233;28;20031;-64
2023/06/15 04:32:57;;;;;;;2.65;2.45;;;21.40;60.70;;;;;;5001692;28;20075;-68
2023/06/15 04:35:29;;;;;;;2.40;2.20;;;21.40;60.70;;;;;;4996328;28;20026;-67
2023/06/15 04:37:58;;;;;;;2.40;2.20;;;21.40;60.70;;;;;;5002161;28;20144;-67
2023/06/15 04:40:26;;;;;;;2.22;2.03;;;21.40;60.70;;;;;;4999080;28;20035;-67
2023/06/15 04:42:53;;;;;;;2.83;2.63;;;21.40;60.70;;;;;;4999836;28;20600;-67
2023/06/15 04:45:19;;;;;;;2.40;2.20;;;21.40;60.70;;;;;;4999586;28;20034;-67
2023/06/15 04:47:44;;;;;;;4.88;2.15;;;21.40;60.70;;;;;;5000120;28;20057;-65
2023/06/15 04:50:13;;;;;;;2.60;2.40;;;21.40;60.80;;;;;;4997046;28;20033;-66
2023/06/15 04:52:42;;;;;;;2.72;2.53;;;21.40;60.80;;;;;;4996997;28;20401;-67
2023/06/15 04:55:08;;;;;;;2.53;2.33;;;21.40;60.80;;;;;;4994531;28;20026;-66
2023/06/15 04:57:33;;;;;;;3.47;2.40;;;21.40;60.80;;;;;;4993309;28;20045;-66
2023/06/15 04:59:59;;;;;;;2.65;2.45;;;21.30;60.70;;;;;;4985229;28;20026;-68
2023/06/15 05:02:25;;;;;;;2.63;2.42;;;21.30;60.70;;;;;;5001745;28;20035;-68
2023/06/15 05:04:51;;;;;;;2.47;2.25;;;21.30;60.70;;;;;;4992115;28;20393;-68
2023/06/15 05:07:16;;;;;;;3.67;2.50;;;21.30;60.70;;;;;;4996384;28;20494;-68
2023/06/15 05:09:42;;;;;;;2.83;2.22;;;21.30;60.70;;;;;;5000560;28;20041;-67
2023/06/15 05:12:08;;;;;;;2.78;2.58;;;21.40;60.80;;;;;;4999462;28;20037;-67
2023/06/15 05:14:33;;;;;;;2.85;2.50;;;21.30;60.70;;;;;;4998980;28;20382;-67
2023/06/15 05:17:03;;;;;;;2.50;2.30;;;21.30;60.80;;;;;;4996666;28;20563;-68
2023/06/15 05:19:29;;;;;;;2.40;2.20;;;21.30;60.80;;;;;;4993693;28;20031;-68
2023/06/15 05:21:59;;;;;;;2.85;2.58;;;21.30;60.80;;;;;;4995345;28;20503;-68
2023/06/15 05:24:25;;;;;;;3.25;2.72;;;21.30;60.70;;;;;;4993486;28;20385;-67
2023/06/15 05:26:50;;;;;;;2.50;2.30;;;21.30;60.80;;;;;;4988252;28;20247;-67
2023/06/15 05:29:16;;;;;;;2.63;2.42;;;21.30;60.80;;;;;;4995704;28;20518;-68
2023/06/15 05:31:42;;;;;;;2.60;2.40;;;21.30;60.90;;;;;;4992490;28;20026;-67
2023/06/15 05:34:07;;;;;;;2.88;2.47;;;21.30;60.80;;;;;;4993320;28;20347;-68
2023/06/15 05:36:34;;;;;;;2.97;2.60;;;21.30;60.80;;;;;;4992049;28;20061;-68
2023/06/15 05:38:59;;;;;;;2.78;2.08;;;21.30;60.80;;;;;;4998739;28;20512;-66
2023/06/15 05:41:25;;;;;;;3.50;2.72;;;21.30;60.80;;;;;;4998426;28;20056;-67
2023/06/15 05:43:50;;;;;;;2.55;2.35;;;21.30;60.80;;;;;;4997961;28;20108;-67
2023/06/15 05:46:16;;;;;;;2.80;2.20;;;21.30;60.80;;;;;;4996350;28;20038;-68
2023/06/15 05:48:41;;;;;;;2.83;2.63;;;21.30;60.70;;;;;;4996473;28;20033;-68
2023/06/15 05:51:07;;;;;;;2.72;2.50;;;21.30;60.80;;;;;;4992866;28;20033;-68
2023/06/15 05:53:32;;;;;;;2.85;2.38;;;21.30;60.70;;;;;;4990181;28;20042;-68
2023/06/15 05:55:58;;;;;;;2.45;2.25;;;21.30;60.80;;;;;;4990140;28;20061;-68
2023/06/15 05:58:23;;;;;;;2.70;2.50;;;21.30;60.80;;;;;;4989962;28;20064;-68
2023/06/15 06:00:49;;;;;;;2.85;2.60;;;21.30;60.70;;;;;;4991575;28;20397;-67
2023/06/15 06:03:15;;;;;;;2.40;2.20;;;21.30;60.80;;;;;;4990559;28;20030;-67
2023/06/15 06:05:40;;;;;;;2.63;2.42;;;21.30;60.80;;;;;;4991878;28;21512;-68
2023/06/15 06:08:06;;;;;;;2.35;2.15;;;21.30;60.80;;;;;;4999168;28;21806;-67
2023/06/15 06:10:32;;;;;;;2.22;1.95;;;21.30;60.80;;;;;;4997688;28;20038;-67
2023/06/15 06:12:58;;;;;;;2.47;2.28;;;21.30;60.70;;;;;;4996964;28;20032;-67
2023/06/15 06:15:23;;;;;;;3.05;2.53;;;21.30;60.80;;;;;;4995646;28;20053;-67
2023/06/15 06:17:49;;;;;;;2.80;2.60;;;21.30;60.70;;;;;;4993587;28;20593;-68
2023/06/15 06:20:14;;;;;;;2.67;2.47;;;21.30;60.70;;;;;;4992498;28;20592;-67
2023/06/15 06:22:41;;;;;;;2.25;2.03;;;21.30;60.70;;;;;;4993442;28;20061;-68
2023/06/15 06:25:07;;;;;;;2.58;2.38;;;21.30;60.70;;;;;;4987342;28;20022;-68
2023/06/15 06:27:32;;;;;;;2.65;2.45;;;21.30;60.70;;;;;;4990541;28;20498;-67
2023/06/15 06:29:59;;;;;;;2.72;2.47;;;21.30;60.70;;;;;;4994069;28;20066;-67
2023/06/15 06:32:24;;;;;;;2.72;2.40;;;21.30;60.80;;;;;;4994759;28;20041;-68
2023/06/15 06:34:50;;;;;;;2.60;2.00;;;21.30;60.70;;;;;;4997132;28;20034;-66
2023/06/15 06:37:15;;;;;;;2.72;2.33;;;21.30;60.80;;;;;;4998629;28;20026;-67
2023/06/15 06:39:41;;;;;;;2.60;2.40;;;21.30;60.70;;;;;;5001968;28;20027;-67
2023/06/15 06:42:07;;;;;;;2.20;2.00;;;21.30;60.80;;;;;;4995923;28;20548;-68
2023/06/15 06:44:32;;;;;;;2.33;2.13;;;21.30;60.80;;;;;;4994546;28;20030;-65
2023/06/15 06:46:59;;;;;;;3.78;2.33;;;21.30;60.80;;;;;;4993111;28;20150;-68
2023/06/15 06:49:24;;;;;;;2.42;2.13;;;21.30;60.80;;;;;;4995836;28;20057;-65
2023/06/15 06:51:50;;;;;;;2.90;2.30;;;21.30;60.90;;;;;;4995916;28;20034;-66
2023/06/15 06:54:15;;;;;;;2.45;2.00;;;21.30;61.50;;;;;;4990834;28;20042;-68
2023/06/15 06:56:41;;;;;;;2.70;2.40;;;21.30;60.90;;;;;;4992437;28;20049;-68
2023/06/15 06:59:06;;;;;;;2.95;2.58;;;21.30;60.90;;;;;;5001430;28;20041;-68
2023/06/15 07:01:32;;;;;;;3.88;2.50;;;21.30;60.80;;;;;;4999842;28;20402;-68
2023/06/15 07:03:57;;;;;;;2.50;2.30;;;21.30;60.80;;;;;;5000887;28;20030;-67
2023/06/15 07:06:23;;;;;;;2.47;2.28;;;21.30;60.90;;;;;;5000523;28;20282;-68
2023/06/15 07:08:48;;;;;;;2.28;2.08;;;21.30;60.80;;;;;;4997874;28;20030;-67
2023/06/15 07:11:14;;;;;;;2.95;2.40;;;21.30;60.80;;;;;;4998629;28;20035;-70
2023/06/15 07:13:40;;;;;;;2.47;1.88;;;21.30;60.80;;;;;;4996816;28;20034;-68
2023/06/15 07:16:06;;;;;;;2.67;2.13;;;21.30;60.80;;;;;;4996988;28;20477;-67
2023/06/15 07:18:31;;;;;;;4.35;2.28;;;21.30;60.80;;;;;;4992478;28;20030;-67
2023/06/15 07:20:57;;;;;;;2.35;2.15;;;21.30;60.80;;;;;;4995464;28;20126;-67
2023/06/15 07:23:24;;;;;;;2.85;2.10;;;21.30;60.80;;;;;;4990104;28;20026;-67
2023/06/15 07:25:53;;;;;;;2.30;2.10;;;21.30;60.80;;;;;;4992423;28;20501;-67
2023/06/15 07:28:19;;;;;;;2.47;2.17;;;21.30;60.80;;;;;;5000608;28;20033;-67
2023/06/15 07:30:48;;;;;;;3.20;2.17;;;21.30;60.80;;;;;;4996705;28;20054;-66
2023/06/15 07:33:14;;;;;;;4.05;2.17;;;21.20;60.80;;;;;;4996001;28;20026;-67
2023/06/15 07:35:39;;;;;;;4.63;2.60;;;21.30;60.80;;;;;;4999551;28;20028;-66
2023/06/15 07:38:05;;;;;;;3.72;2.45;;;21.30;60.80;;;;;;4998999;28;20354;-66
2023/06/15 07:40:30;;;;;;;3.80;2.40;;;21.20;60.80;;;;;;4996889;28;20033;-67
2023/06/15 07:42:56;;;;;;;2.72;2.00;;;21.30;60.90;;;;;;4995799;28;20030;-67
2023/06/15 07:45:22;;;;;;;2.75;2.30;;;21.30;60.90;;;;;;4996816;28;20572;-68
2023/06/15 07:47:47;;;;;;;4.43;2.55;;;21.20;60.80;;;;;;4991486;28;20042;-67
2023/06/15 07:50:13;;;;;;;2.40;2.20;;;21.30;60.80;;;;;;4999136;28;20034;-67
2023/06/15 07:52:38;;;;;;;3.17;2.40;;;21.30;61.00;;;;;;4991067;28;20076;-66
2023/06/15 07:55:05;;;;;;;2.90;2.40;;;21.30;60.90;;;;;;4996098;28;20525;-67
2023/06/15 07:57:30;;;;;;;3.67;2.20;;;21.20;60.80;;;;;;4993513;28;20030;-65
2023/06/15 07:59:58;;;;;;;3.53;2.50;;;21.20;60.90;;;;;;4992313;28;20069;-67
2023/06/15 08:02:24;;;;;;;3.65;2.70;;;21.30;60.90;;;;;;5000230;28;20058;-67
2023/06/15 08:04:49;;;;;;;2.72;2.42;;;21.30;60.90;;;;;;4999142;28;20053;-67
2023/06/15 08:07:15;;;;;;;3.70;2.22;;;21.30;60.90;;;;;;4999889;28;20030;-67
2023/06/15 08:09:41;;;;;;;3.03;2.25;;;21.30;60.90;;;;;;4996394;28;20034;-68
2023/06/15 08:12:07;;;;;;;5.50;2.00;;;21.30;60.90;;;;;;4997017;28;20036;-66
2023/06/15 08:14:33;;;;;;;4.93;2.42;;;21.30;60.90;;;;;;4993589;28;20034;-67
2023/06/15 08:16:58;;;;;;;2.38;2.17;;;21.30;60.90;;;;;;4995890;28;20031;-68
2023/06/15 08:19:24;;;;;;;2.40;2.20;;;21.30;60.90;;;;;;4993371;28;20251;-67
2023/06/15 08:21:49;;;;;;;4.82;2.00;;;21.30;60.90;;;;;;4995413;28;20100;-67
2023/06/15 08:24:16;;;;;;;2.90;2.13;;;21.30;60.90;;;;;;4993267;28;20521;-67
2023/06/15 08:26:42;;;;;;;4.97;2.33;;;21.30;60.90;;;;;;4992833;28;20034;-67
2023/06/15 08:29:08;;;;;;;2.42;2.22;;;21.30;60.90;;;;;;4992108;28;20054;-68
2023/06/15 08:31:35;;;;;;;4.68;2.17;;;21.30;60.90;;;;;;4998938;28;20042;-68
2023/06/15 08:34:00;;;;;;;4.50;2.42;;;21.30;61.00;;;;;;4998753;28;20022;-68
2023/06/15 08:36:26;;;;;;;4.43;2.78;;;21.30;60.90;;;;;;4998336;28;20030;-67
2023/06/15 08:38:51;;;;;;;5.05;2.28;;;21.20;60.90;;;;;;4996696;28;20382;-67
2023/06/15 08:41:19;;;;;;;3.75;2.33;;;21.30;61.10;;;;;;4996211;28;20030;-67
2023/06/15 08:43:46;;;;;;;2.92;2.63;;;21.30;61.20;;;;;;4996765;28;20037;-65
2023/06/15 08:46:12;;;;;;;6.32;2.40;;;21.30;61.30;;;;;;4998853;28;20123;-67
2023/06/15 08:48:39;;;;;;;3.97;2.47;;;21.30;61.40;;;;;;4995386;28;20525;-67
2023/06/15 08:51:08;;;;;;;5.32;2.00;;;21.30;61.20;;;;;;4997160;28;20030;-66
2023/06/15 08:53:35;;;;;;;4.82;2.42;;;21.30;61.40;;;;;;4997823;28;20053;-66
2023/06/15 08:56:02;;;;;;;2.85;2.30;;;21.30;61.40;;;;;;4996483;28;20034;-65
2023/06/15 08:58:27;;;;;;;5.45;2.45;;;21.30;61.50;;;;;;4998516;28;20584;-63
2023/06/15 09:00:54;;;;;;;2.58;2.15;;;21.30;61.50;;;;;;5000765;28;20036;-66
2023/06/15 09:03:21;;;;;;;9.65;2.50;;;21.30;61.40;;;;;;4996959;28;20038;-66
2023/06/15 09:05:47;;;;;;;2.85;2.17;;;21.30;61.30;;;;;;4996019;28;20416;-66
2023/06/15 09:08:13;;;;;;;3.30;2.38;;;21.30;61.40;;;;;;4998138;28;20571;-66
2023/06/15 09:10:41;;;;;;;5.32;2.50;;;21.30;61.40;;;;;;4993758;28;20048;-66
2023/06/15 09:13:15;;;;;;;4.50;2.75;;;21.30;61.30;;;;;;4993564;28;20034;-66
2023/06/15 09:15:43;;;;;;;5.33;2.23;;;21.30;61.40;;;;;;4996152;28;20077;-66
2023/06/15 09:18:13;;;;;;;4.13;2.53;;;21.30;61.40;;;;;;4992852;28;20461;-64
2023/06/15 09:20:38;;;;;;;5.78;3.00;;;21.20;61.30;;;;;;4998591;28;20521;-65
2023/06/15 09:23:08;;;;;;;5.47;2.72;;;21.30;61.40;;;;;;5000762;28;20151;-65
2023/06/15 09:25:36;;;;;;;3.83;3.05;;;21.30;61.30;;;;;;4996727;28;20095;-65
2023/06/15 09:28:06;;;;;;;5.90;3.13;;;21.30;61.20;;;;;;5001155;28;20133;-65
2023/06/15 09:30:33;;;;;;;3.83;2.65;;;21.20;61.20;;;;;;4997248;28;20042;-65
2023/06/15 09:33:19;;;;;;;5.72;3.60;;;21.30;61.20;;;;;;4999780;28;20117;-65
2023/06/15 09:36:00;;;;;;;4.43;3.10;;;21.30;61.10;;;;;;4997658;28;20022;-65
2023/06/15 09:38:42;;;;;;;3.83;3.03;;;21.20;61.10;;;;;;4996120;28;20022;-66
2023/06/15 09:41:08;;;;;;;4.80;2.97;;;21.30;61.20;;;;;;4998994;28;20094;-65
2023/06/15 09:43:35;;;;;;;5.63;2.97;;;21.30;61.10;;;;;;4995772;28;20131;-65
2023/06/15 09:46:04;;;;;;;6.20;4.07;;;21.30;61.10;;;;;;4990676;28;20058;-64
2023/06/15 09:48:33;;;;;;;4.10;3.33;;;21.30;61.10;;;;;;4997046;28;20060;-65
2023/06/15 09:51:02;;;;;;;5.32;3.60;;;21.30;61.10;;;;;;4995539;28;20116;-65
2023/06/15 09:53:30;;;;;;;5.05;3.70;;;21.20;61.00;;;;;;4995416;28;20029;-62
2023/06/15 09:55:57;;;;;;;4.53;3.03;;;21.20;61.00;;;;;;4990721;28;20061;-65
2023/06/15 09:58:22;;;;;;;6.50;3.67;;;21.20;61.00;;;;;;5005654;28;20026;-66
2023/06/15 10:00:49;;;;;;;5.05;3.55;;;21.20;61.00;;;;;;4997518;28;20049;-65
2023/06/15 10:03:22;;;;;;;5.30;3.55;;;21.30;61.00;;;;;;4998707;28;20036;-62
2023/06/15 10:05:54;;;;;;;5.10;3.90;;;21.20;61.00;;;;;;4996413;28;20038;-65
2023/06/15 10:08:24;;;;;;;5.78;3.70;;;21.20;61.00;;;;;;5010238;28;20034;-66
2023/06/15 10:10:51;;;;;;;5.57;3.65;;;21.20;60.90;;;;;;4993896;28;20028;-67
2023/06/15 10:13:23;;;;;;;5.00;4.18;;;21.20;60.90;;;;;;4994759;28;20026;-65
2023/06/15 10:15:52;;;;;;;6.75;4.00;;;21.20;60.90;;;;;;4989331;28;20026;-66
2023/06/15 10:18:22;;;;;;;6.07;4.43;;;21.20;61.50;;;;;;4998062;28;20030;-65
2023/06/15 10:20:53;;;;;;;5.13;3.58;;;21.30;60.90;;;;;;4994451;28;20034;-66
2023/06/15 10:23:24;;;;;;;4.32;3.47;;;21.20;60.80;;;;;;4987080;28;20030;-65
2023/06/15 10:25:52;;;;;;;7.85;4.28;;;21.30;60.80;;;;;;5003082;28;20038;-65
2023/06/15 10:28:23;;;;;;;4.45;3.72;;;21.20;60.80;;;;;;5002044;28;20034;-65
2023/06/15 10:31:07;;;;;;;5.70;3.67;;;21.30;60.80;;;;;;5000471;28;20077;-65
2023/06/15 10:34:11;;;;;;;6.78;4.25;;;21.30;60.80;;;;;;4999360;28;20516;-64
2023/06/15 10:37:08;;;;;;;6.70;4.00;;;21.30;60.80;;;;;;4992251;28;20060;-65
2023/06/15 10:39:43;;;;;;;6.50;4.05;;;21.20;60.80;;;;;;4994908;28;20034;-65
2023/06/15 10:42:12;;;;;;;6.37;3.60;;;21.20;60.70;;;;;;4996278;28;20045;-66
2023/06/15 10:44:37;;;;;;;6.07;4.18;;;21.20;60.80;;;;;;4993753;28;20034;-63
2023/06/15 10:47:13;;;;;;;5.53;3.80;;;21.20;60.80;;;;;;4999656;28;20389;-66
2023/06/15 10:49:52;;;;;;;6.88;4.50;;;21.20;60.80;;;;;;4997491;28;20421;-66
2023/06/15 10:52:18;;;;;;;6.00;3.97;;;21.30;60.90;;;;;;5001839;28;20034;-65
2023/06/15 10:54:44;;;;;;;4.75;3.55;;;21.30;60.90;;;;;;5001929;28;20419;-65
2023/06/15 10:57:14;;;;;;;5.38;4.05;;;21.30;60.90;;;;;;5001372;28;20057;-66
2023/06/15 10:59:46;;;;;;;5.95;4.05;;;21.30;61.00;;;;;;4998458;28;20037;-65
2023/06/15 11:02:45;;;;;;;5.32;3.47;;;21.30;61.00;;;;;;5000370;28;20076;-65
2023/06/15 11:05:12;;;;;;;6.50;3.85;;;21.20;60.90;;;;;;4975589;28;20530;-66
2023/06/15 11:07:43;;;;;;;4.90;4.38;;;21.20;60.90;;;;;;4998005;28;20038;-66
2023/06/15 11:10:28;;;;;;;4.88;3.70;;;21.20;61.00;;;;;;4995183;28;20045;-66
2023/06/15 11:13:04;;;;;;;5.00;3.78;;;21.30;61.00;;;;;;4993690;28;20034;-65
2023/06/15 11:15:35;;;;;;;6.32;3.85;;;21.20;60.90;;;;;;4999814;28;20145;-64
2023/06/15 11:18:03;;;;;;;6.88;3.75;;;21.20;61.00;;;;;;4997300;28;20510;-64
2023/06/15 11:20:52;;;;;;;7.20;3.97;;;21.20;61.00;;;;;;4997524;28;20022;-64
2023/06/15 11:23:23;;;;;;;5.95;3.97;;;21.20;61.00;;;;;;4996694;28;20033;-64
2023/06/15 11:25:50;;;;;;;5.00;3.58;;;21.30;61.00;;;;;;5000304;28;20022;-64
2023/06/15 11:28:21;;;;;;;6.30;3.70;;;21.20;61.00;;;;;;5000099;28;20041;-66
2023/06/15 11:30:47;;;;;;;7.20;4.28;;;21.20;61.00;;;;;;4989554;28;20041;-66
2023/06/15 11:33:13;;;;;;;6.63;4.18;;;21.20;61.00;;;;;;4998506;28;20068;-66
2023/06/15 11:35:42;;;;;;;5.78;3.60;;;21.20;61.00;;;;;;4997494;28;20026;-66
2023/06/15 11:38:08;;;;;;;6.20;3.92;;;21.20;61.00;;;;;;4996780;28;20034;-65
2023/06/15 11:40:34;;;;;;;5.97;3.88;;;21.20;61.10;;;;;;4994909;28;20133;-63
2023/06/15 11:43:02;;;;;;;6.65;4.20;;;21.20;61.10;;;;;;4994231;28;20061;-66
2023/06/15 11:45:28;;;;;;;8.15;3.58;;;21.20;61.20;;;;;;4998099;28;20110;-62
2023/06/15 11:47:54;;;;;;;5.43;4.20;;;21.20;61.20;;;;;;4996968;28;20129;-66
2023/06/15 11:50:20;;;;;;;5.03;3.60;;;21.20;61.20;;;;;;4996137;28;20036;-65
2023/06/15 11:52:46;;;;;;;8.15;3.58;;;21.20;61.20;;;;;;5000707;28;20066;-66
2023/06/15 11:55:13;;;;;;;5.15;3.58;;;21.20;61.20;;;;;;4999866;28;20030;-66
2023/06/15 11:57:41;;;;;;;5.30;3.22;;;21.20;61.20;;;;;;4995999;28;20125;-66
2023/06/15 12:00:08;;;;;;;5.13;3.58;;;21.20;61.20;;;;;;4998667;28;20088;-65
2023/06/15 12:02:34;;;;;;;4.35;3.47;;;21.20;61.20;;;;;;4995979;28;20485;-65
2023/06/15 12:05:01;;;;;;;3.97;3.47;;;21.20;61.20;;;;;;4999733;28;20740;-64
2023/06/15 12:07:30;;;;;;;5.40;3.75;;;21.20;61.10;;;;;;4994079;28;20516;-64
2023/06/15 12:09:56;;;;;;;4.40;3.72;;;21.20;61.10;;;;;;4994870;28;20060;-66
2023/06/15 12:12:33;;;;;;;6.72;3.17;;;21.20;61.10;;;;;;4999348;28;20393;-66
2023/06/15 12:15:00;;;;;;;4.53;3.30;;;21.20;61.10;;;;;;4994184;28;20425;-66
2023/06/15 12:17:27;;;;;;;4.63;4.07;;;21.20;61.00;;;;;;4990343;28;20122;-65
2023/06/15 12:19:59;;;;;;;5.13;3.35;;;21.20;61.10;;;;;;4998674;28;20579;-66
2023/06/15 12:22:41;;;;;;;3.85;3.45;;;21.20;61.00;;;;;;4999227;28;20816;-65
2023/06/15 12:25:07;;;;;;;7.88;3.75;;;21.30;61.00;;;;;;4997444;28;20053;-66
2023/06/15 12:27:33;;;;;;;4.15;3.30;;;21.20;61.00;;;;;;4996295;28;20041;-66
2023/06/15 12:30:16;;;;;;;3.58;3.25;;;21.20;61.00;;;;;;4998843;28;20064;-66
2023/06/15 12:32:43;;;;;;;4.93;3.25;;;21.20;61.00;;;;;;4998053;28;20034;-66
2023/06/15 12:35:38;;;;;;;5.88;3.40;;;21.20;61.00;;;;;;4996298;28;20524;-64
2023/06/15 12:38:10;;;;;;;5.75;3.95;;;21.20;61.00;;;;;;4998030;28;20034;-65
2023/06/15 12:40:39;;;;;;;4.72;3.28;;;21.20;61.00;;;;;;4993273;28;20035;-66
2023/06/15 12:43:05;;;;;;;3.53;2.95;;;21.30;61.00;;;;;;4997227;28;20029;-64
2023/06/15 12:45:32;;;;;;;3.05;2.85;;;21.20;61.00;;;;;;4993097;28;20109;-65
2023/06/15 12:47:58;;;;;;;5.13;3.30;;;21.20;61.00;;;;;;4994518;28;20030;-66
2023/06/15 12:50:23;;;;;;;5.28;3.35;;;21.20;60.90;;;;;;5000597;28;20288;-66